EST,Max TemperatureF,Mean TemperatureF,Min TemperatureF,Max Dew PointF,MeanDew PointF,Min DewpointF,Max Humidity, Mean Humidity, Min Humidity, Max Sea Level PressureIn, Mean Sea Level PressureIn, Min Sea Level PressureIn, Max VisibilityMiles, Mean VisibilityMiles, Min VisibilityMiles, Max Wind SpeedMPH, Mean Wind SpeedMPH, Max Gust SpeedMPH,PrecipitationIn, CloudCover, Events, WindDirDegrees
2011-12-1,50,40,30,32,29,25,93,71,37,30.34,30.28,30.16,10,10,10,13,6,16,0.00,2,,306
2011-12-2,59,42,26,32,29,27,100,69,34,30.56,30.38,30.30,10,10,10,16,3,23,0.00,2,,280
2011-12-3,32,29,26,30,28,25,100,94,87,30.61,30.58,30.56,10,9,7,4,1,,0.00,1,,330
2011-12-4,,,,,,,,,,,,,,,,,,,0.00,,,-1
2011-12-5,62,58,53,54,51,46,100,81,59,30.24,30.18,30.12,10,9,4,10,7,,0.00,7,Rain,161
2011-12-6,59,56,53,59,55,54,100,100,100,30.10,30.00,29.89,10,6,0,7,3,,0.09,7,Fog-Rain,192
2011-12-7,55,44,33,55,46,34,100,99,87,29.91,29.79,29.63,10,7,2,21,6,25,1.30,7,Rain-Snow,326
2011-12-8,41,36,30,34,28,25,100,78,61,30.32,30.19,29.89,10,10,10,30,13,41,0.00,2,,290
2011-12-9,50,37,24,32,30,25,100,83,50,30.30,30.25,30.18,10,10,7,7,2,,0.00,2,,225
2011-12-10,41,36,28,32,25,16,93,67,45,30.54,30.37,30.25,10,10,10,20,5,26,0.00,2,,313
2011-12-11,39,30,21,21,20,18,86,67,45,30.66,30.59,30.53,10,10,10,5,1,,0.00,1,,339
2011-12-12,42,30,19,28,24,18,100,81,53,30.58,30.51,30.45,10,10,4,6,0,,0.00,1,,197
2011-12-13,50,36,23,32,28,21,100,77,43,30.47,30.43,30.38,10,10,7,13,1,18,0.00,2,,315
2011-12-14,48,42,35,34,33,32,93,71,54,30.41,30.34,30.22,10,10,7,8,2,,0.00,7,,158
2011-12-15,60,51,42,52,44,34,82,72,59,30.21,29.99,29.86,10,10,10,21,6,26,0.00,4,,215
2011-12-16,62,50,37,46,31,28,75,65,47,30.27,30.15,29.89,10,10,10,36,14,44,0.00,3,,308
2011-12-17,37,34,30,28,27,23,87,73,65,30.22,30.19,30.16,10,10,10,20,11,24,0.00,7,,306
2011-12-18,39,32,26,28,26,23,93,77,65,30.31,30.25,30.19,10,10,10,17,6,25,0.00,6,,282
2011-12-19,53,40,26,34,29,23,86,65,44,30.28,30.14,30.05,10,10,10,10,5,,0.00,4,,215
2011-12-20,51,46,42,41,39,32,93,73,50,30.17,30.11,30.06,10,10,10,16,5,23,0.00,6,,318
2011-12-21,57,49,41,55,46,37,100,94,67,30.05,29.90,29.76,10,9,5,14,2,20,0.08,4,Rain,222
2011-12-22,55,47,39,46,44,37,100,86,67,30.13,30.01,29.83,10,9,2,8,2,,0.57,4,Rain,68
2011-12-23,48,44,39,46,39,34,100,83,70,30.24,30.09,29.80,10,9,2,21,7,32,0.03,7,Rain,307
2011-12-24,42,36,30,36,30,27,93,77,57,30.47,30.37,30.22,10,10,10,17,4,26,0.00,5,,292
2011-12-25,48,37,26,32,29,25,100,72,46,30.35,30.17,30.01,10,10,10,21,4,29,0.00,2,,225
2011-12-26,44,38,32,30,29,28,93,68,53,30.35,30.24,30.05,10,10,10,29,12,34,0.00,4,,303
2011-12-27,42,38,35,41,34,28,100,88,66,30.15,29.74,29.43,10,8,0,16,5,32,0.28,5,Fog-Rain,174
2011-12-28,41,34,28,32,28,21,80,70,56,30.01,29.79,29.54,10,10,10,28,15,38,0.00,5,,291
2011-12-29,35,32,28,32,29,23,100,87,69,30.05,29.97,29.91,10,10,5,9,3,,0.00,5,Snow,205
2011-12-30,53,40,28,36,32,28,100,72,50,30.03,29.92,29.82,10,10,10,12,4,17,0.00,2,,193
2011-12-31,51,44,37,45,39,34,100,80,66,30.12,29.94,29.80,10,9,1,21,6,26,0.01,6,Rain,261